LNG Dream — C6VO5 — position and weather

sailwx.info

Track history (hours):
 
Tides and Currents Weather Stations Pressure Air Temp Water Temp Dewpoint Dewpoint Depression Visibility Wind Speed Wind Dir Waves Ship Positions

LNG Dream

Last reported at 2015-Feb-20 04:32 UTC. Time now 2015-Mar-04 12:48 UTC.
Position N 33°54' E 134°53'.
Warning: this ship's position is 12 days out of date.

Length 289.6 m; beam 49 m.

Type: Ship (hazmat cat A). MMSI: 309065000.

Date/timePositionNaut miles runAvg speedWind from/ knotsBaromVisibWave heightAir tempDewpointWater temp
2015-Feb-20 04:32N 33°54' E 134°53'1212.2
2015-Feb-20 03:33N 34°05' E 134°56'1312.8
2015-Feb-20 02:33N 34°18' E 134°59'1414.5
2015-Feb-20 01:33N 34°28' E 135°11'1211.6
2015-Feb-20 00:32N 34°33' E 135°24'0 0.3
2015-Feb-19 23:33N 34°33' E 135°24'1 0.0
2015-Feb-18 22:33N 34°33' E 135°23'4 4.0
2015-Feb-18 21:32N 34°34' E 135°18'0 0.0
2015-Feb-18 20:26N 34°34' E 135°18'0 0.0
2015-Feb-18 19:32N 34°34' E 135°18'0 0.0
2015-Feb-18 18:32N 34°34' E 135°18'0 0.0
2015-Feb-18 17:26N 34°34' E 135°18'0 0.0
2015-Feb-18 16:20N 34°34' E 135°18'0 0.0
2015-Feb-18 15:32N 34°34' E 135°18'0 0.1
2015-Feb-18 14:32N 34°34' E 135°18'0 0.0
2015-Feb-18 13:32N 34°34' E 135°18'0 0.0
2015-Feb-18 12:26N 34°34' E 135°18'0 0.0
2015-Feb-18 11:26N 34°34' E 135°18'0 0.0
2015-Feb-18 10:20N 34°34' E 135°18'0 0.1
2015-Feb-18 09:32N 34°34' E 135°18'0 0.1
2015-Feb-18 08:32N 34°34' E 135°18'0 0.1
2015-Feb-18 07:32N 34°34' E 135°18'0 0.0
2015-Feb-18 06:32N 34°34' E 135°18'0 0.0
2015-Feb-18 05:32N 34°34' E 135°18'0 0.0
2015-Feb-18 04:20N 34°34' E 135°18'0 0.0
2015-Feb-18 03:32N 34°34' E 135°18'0 0.0
2015-Feb-18 02:20N 34°34' E 135°18'0 0.0
2015-Feb-18 01:33N 34°34' E 135°18'1 1.0
2015-Feb-18 00:33N 34°33' E 135°19'9 9.0
2015-Feb-17 23:33N 34°28' E 135°10'1414.0
2015-Feb-17 22:33N 34°17' E 134°59'1010.4
2015-Feb-17 21:33N 34°07' E 134°59'9 9.3
2015-Feb-17 20:33N 33°58' E 134°58'9 8.6
2015-Feb-17 19:31N 33°49' E 134°58'  
Track history (hours):
 
Tides and Currents Weather Stations Pressure Air Temp Water Temp Dewpoint Dewpoint Depression Visibility Wind Speed Wind Dir Waves Ship Positions

LNG Dream

Last reported at 2015-Feb-20 04:32 UTC. Time now 2015-Mar-04 12:48 UTC.
Position N 33°54' E 134°53'.
Warning: this ship's position is 12 days out of date.

Length 289.6 m; beam 49 m.

Type: Ship (hazmat cat A). MMSI: 309065000.

Date/timePositionNaut miles runAvg speedWind from/ knotsBaromVisibWave heightAir tempDewpointWater temp
2015-Feb-20 04:32N 33°54' E 134°53'1212.2
2015-Feb-20 03:33N 34°05' E 134°56'1312.8
2015-Feb-20 02:33N 34°18' E 134°59'1414.5
2015-Feb-20 01:33N 34°28' E 135°11'1211.6
2015-Feb-20 00:32N 34°33' E 135°24'0 0.3
2015-Feb-19 23:33N 34°33' E 135°24'1 0.0
2015-Feb-18 22:33N 34°33' E 135°23'4 4.0
2015-Feb-18 21:32N 34°34' E 135°18'0 0.0
2015-Feb-18 20:26N 34°34' E 135°18'0 0.0
2015-Feb-18 19:32N 34°34' E 135°18'0 0.0
2015-Feb-18 18:32N 34°34' E 135°18'0 0.0
2015-Feb-18 17:26N 34°34' E 135°18'0 0.0
2015-Feb-18 16:20N 34°34' E 135°18'0 0.0
2015-Feb-18 15:32N 34°34' E 135°18'0 0.1
2015-Feb-18 14:32N 34°34' E 135°18'0 0.0
2015-Feb-18 13:32N 34°34' E 135°18'0 0.0
2015-Feb-18 12:26N 34°34' E 135°18'0 0.0
2015-Feb-18 11:26N 34°34' E 135°18'0 0.0
2015-Feb-18 10:20N 34°34' E 135°18'0 0.1
2015-Feb-18 09:32N 34°34' E 135°18'0 0.1
2015-Feb-18 08:32N 34°34' E 135°18'0 0.1
2015-Feb-18 07:32N 34°34' E 135°18'0 0.0
2015-Feb-18 06:32N 34°34' E 135°18'0 0.0
2015-Feb-18 05:32N 34°34' E 135°18'0 0.0
2015-Feb-18 04:20N 34°34' E 135°18'0 0.0
2015-Feb-18 03:32N 34°34' E 135°18'0 0.0
2015-Feb-18 02:20N 34°34' E 135°18'0 0.0
2015-Feb-18 01:33N 34°34' E 135°18'1 1.0
2015-Feb-18 00:33N 34°33' E 135°19'9 9.0
2015-Feb-17 23:33N 34°28' E 135°10'1414.0
2015-Feb-17 22:33N 34°17' E 134°59'1010.4
2015-Feb-17 21:33N 34°07' E 134°59'9 9.3
2015-Feb-17 20:33N 33°58' E 134°58'9 8.6
2015-Feb-17 19:31N 33°49' E 134°58'  

Dump ship's entire track history